sensor_id;sensor_type;location;lat;lon;timestamp;pressure;altitude;pressure_sealevel;temperature;humidity
4586;BME280;2305;50.118;8.952;2023-08-01T00:01:09;99315.88;;;18.41;100.00
4586;BME280;2305;50.118;8.952;2023-08-01T00:03:40;99307.00;;;18.34;100.00
4586;BME280;2305;50.118;8.952;2023-08-01T00:06:12;99301.88;;;18.33;100.00
4586;BME280;2305;50.118;8.952;2023-08-01T00:08:43;99283.56;;;18.30;100.00
4586;BME280;2305;50.118;8.952;2023-08-01T00:11:15;99268.97;;;18.26;100.00
4586;BME280;2305;50.118;8.952;2023-08-01T00:13:44;99275.81;;;18.35;100.00
4586;BME280;2305;50.118;8.952;2023-08-01T00:16:16;99267.56;;;18.30;100.00
4586;BME280;2305;50.118;8.952;2023-08-01T00:18:46;99253.25;;;18.31;100.00
4586;BME280;2305;50.118;8.952;2023-08-01T00:21:14;99259.94;;;18.27;100.00
4586;BME280;2305;50.118;8.952;2023-08-01T00:23:42;99240.91;;;18.30;100.00
4586;BME280;2305;50.118;8.952;2023-08-01T00:26:14;99246.19;;;18.23;100.00
4586;BME280;2305;50.118;8.952;2023-08-01T00:28:47;99240.88;;;18.23;100.00
4586;BME280;2305;50.118;8.952;2023-08-01T00:31:16;99242.91;;;18.21;100.00
4586;BME280;2305;50.118;8.952;2023-08-01T00:33:45;99228.75;;;18.21;100.00
4586;BME280;2305;50.118;8.952;2023-08-01T00:36:16;99219.19;;;18.33;100.00
4586;BME280;2305;50.118;8.952;2023-08-01T00:38:45;99212.41;;;18.30;100.00
4586;BME280;2305;50.118;8.952;2023-08-01T00:41:14;99198.69;;;18.33;100.00
4586;BME280;2305;50.118;8.952;2023-08-01T00:43:47;99194.91;;;18.28;100.00
4586;BME280;2305;50.118;8.952;2023-08-01T00:46:16;99191.66;;;18.26;100.00
4586;BME280;2305;50.118;8.952;2023-08-01T00:48:46;99175.28;;;18.35;100.00
4586;BME280;2305;50.118;8.952;2023-08-01T00:51:14;99183.28;;;18.35;100.00
4586;BME280;2305;50.118;8.952;2023-08-01T00:53:45;99169.69;;;18.24;100.00
4586;BME280;2305;50.118;8.952;2023-08-01T00:56:18;99164.94;;;18.13;100.00
4586;BME280;2305;50.118;8.952;2023-08-01T00:58:50;99168.03;;;18.16;100.00
4586;BME280;2305;50.118;8.952;2023-08-01T01:01:19;99142.59;;;18.14;100.00
4586;BME280;2305;50.118;8.952;2023-08-01T01:03:48;99155.53;;;18.17;100.00
4586;BME280;2305;50.118;8.952;2023-08-01T01:06:24;99150.19;;;18.17;100.00
4586;BME280;2305;50.118;8.952;2023-08-01T01:08:55;99143.00;;;18.17;100.00
4586;BME280;2305;50.118;8.952;2023-08-01T01:11:26;99143.22;;;18.16;100.00
4586;BME280;2305;50.118;8.952;2023-08-01T01:13:56;99134.81;;;18.19;100.00
4586;BME280;2305;50.118;8.952;2023-08-01T01:16:28;99140.00;;;18.33;100.00
4586;BME280;2305;50.118;8.952;2023-08-01T01:19:00;99130.09;;;18.21;100.00
4586;BME280;2305;50.118;8.952;2023-08-01T01:21:33;99132.38;;;18.24;100.00
4586;BME280;2305;50.118;8.952;2023-08-01T01:24:09;99122.09;;;18.21;100.00
4586;BME280;2305;50.118;8.952;2023-08-01T01:26:40;99114.31;;;18.26;100.00
4586;BME280;2305;50.118;8.952;2023-08-01T01:29:11;99107.94;;;18.27;100.00
4586;BME280;2305;50.118;8.952;2023-08-01T01:31:41;99107.53;;;18.23;100.00
4586;BME280;2305;50.118;8.952;2023-08-01T01:34:10;99100.19;;;18.32;100.00
4586;BME280;2305;50.118;8.952;2023-08-01T01:36:39;99087.22;;;18.29;100.00
4586;BME280;2305;50.118;8.952;2023-08-01T01:39:10;99087.22;;;18.29;100.00
4586;BME280;2305;50.118;8.952;2023-08-01T01:41:39;99086.44;;;18.35;100.00
4586;BME280;2305;50.118;8.952;2023-08-01T01:44:09;99075.13;;;18.26;100.00
4586;BME280;2305;50.118;8.952;2023-08-01T01:46:38;99076.75;;;18.21;100.00
4586;BME280;2305;50.118;8.952;2023-08-01T01:49:07;99080.66;;;18.25;100.00
4586;BME280;2305;50.118;8.952;2023-08-01T01:51:35;99086.66;;;18.53;100.00
4586;BME280;2305;50.118;8.952;2023-08-01T01:54:07;99078.66;;;18.40;100.00
4586;BME280;2305;50.118;8.952;2023-08-01T01:56:36;99075.56;;;18.36;100.00
4586;BME280;2305;50.118;8.952;2023-08-01T01:59:06;99077.41;;;18.36;100.00
4586;BME280;2305;50.118;8.952;2023-08-01T02:01:34;99074.16;;;18.40;100.00
4586;BME280;2305;50.118;8.952;2023-08-01T02:04:05;99071.88;;;18.37;100.00
4586;BME280;2305;50.118;8.952;2023-08-01T02:06:34;99060.41;;;18.37;100.00
4586;BME280;2305;50.118;8.952;2023-08-01T02:09:03;99055.06;;;18.37;100.00
4586;BME280;2305;50.118;8.952;2023-08-01T02:11:37;99035.38;;;18.38;100.00
4586;BME280;2305;50.118;8.952;2023-08-01T02:14:05;99041.75;;;18.37;100.00
4586;BME280;2305;50.118;8.952;2023-08-01T02:16:33;99050.34;;;18.45;100.00
4586;BME280;2305;50.118;8.952;2023-08-01T02:19:02;99048.28;;;18.41;100.00
4586;BME280;2305;50.118;8.952;2023-08-01T02:21:34;99043.16;;;18.46;100.00
4586;BME280;2305;50.118;8.952;2023-08-01T02:24:03;99032.47;;;18.59;100.00
4586;BME280;2305;50.118;8.952;2023-08-01T02:26:31;99038.22;;;18.49;100.00
4586;BME280;2305;50.118;8.952;2023-08-01T02:29:01;99028.59;;;18.48;100.00
4586;BME280;2305;50.118;8.952;2023-08-01T02:31:29;99020.59;;;18.48;100.00
4586;BME280;2305;50.118;8.952;2023-08-01T02:34:00;99014.41;;;18.61;100.00
4586;BME280;2305;50.118;8.952;2023-08-01T02:36:31;98997.16;;;18.57;100.00
4586;BME280;2305;50.118;8.952;2023-08-01T02:39:02;99001.69;;;18.56;100.00
4586;BME280;2305;50.118;8.952;2023-08-01T02:41:31;98986.91;;;18.60;100.00
4586;BME280;2305;50.118;8.952;2023-08-01T02:44:03;98983.44;;;18.60;100.00
4586;BME280;2305;50.118;8.952;2023-08-01T02:46:32;98979.13;;;18.52;100.00
4586;BME280;2305;50.118;8.952;2023-08-01T02:49:00;98961.88;;;18.55;100.00
4586;BME280;2305;50.118;8.952;2023-08-01T02:51:31;98969.25;;;18.59;100.00
4586;BME280;2305;50.118;8.952;2023-08-01T02:54:02;98966.19;;;18.62;100.00
4586;BME280;2305;50.118;8.952;2023-08-01T02:56:31;98967.22;;;18.55;100.00
4586;BME280;2305;50.118;8.952;2023-08-01T02:59:05;98958.81;;;18.51;100.00
4586;BME280;2305;50.118;8.952;2023-08-01T03:01:38;98963.09;;;18.52;100.00
4586;BME280;2305;50.118;8.952;2023-08-01T03:04:11;98959.81;;;18.57;100.00
4586;BME280;2305;50.118;8.952;2023-08-01T03:06:39;98962.69;;;18.62;100.00
4586;BME280;2305;50.118;8.952;2023-08-01T03:09:10;98963.31;;;18.57;100.00
4586;BME280;2305;50.118;8.952;2023-08-01T03:11:39;98972.94;;;18.65;100.00
4586;BME280;2305;50.118;8.952;2023-08-01T03:14:09;98957.31;;;18.75;100.00
4586;BME280;2305;50.118;8.952;2023-08-01T03:16:38;98943.78;;;18.70;100.00
4586;BME280;2305;50.118;8.952;2023-08-01T03:19:10;98949.13;;;18.70;100.00
4586;BME280;2305;50.118;8.952;2023-08-01T03:21:42;98957.34;;;18.62;100.00
4586;BME280;2305;50.118;8.952;2023-08-01T03:24:11;98952.38;;;18.78;100.00
4586;BME280;2305;50.118;8.952;2023-08-01T03:26:39;98942.97;;;18.69;100.00
4586;BME280;2305;50.118;8.952;2023-08-01T03:29:12;98945.44;;;18.64;100.00
4586;BME280;2305;50.118;8.952;2023-08-01T03:31:41;98941.69;;;18.78;100.00
4586;BME280;2305;50.118;8.952;2023-08-01T03:34:09;98941.50;;;18.73;100.00
4586;BME280;2305;50.118;8.952;2023-08-01T03:36:40;98948.28;;;18.76;100.00
4586;BME280;2305;50.118;8.952;2023-08-01T03:39:09;98955.41;;;18.88;100.00
4586;BME280;2305;50.118;8.952;2023-08-01T03:41:37;98955.59;;;18.93;100.00
4586;BME280;2305;50.118;8.952;2023-08-01T03:44:07;98949.88;;;18.89;100.00
4586;BME280;2305;50.118;8.952;2023-08-01T03:46:38;98953.19;;;18.85;100.00
4586;BME280;2305;50.118;8.952;2023-08-01T03:49:07;98941.69;;;18.78;100.00
4586;BME280;2305;50.118;8.952;2023-08-01T03:51:36;98953.59;;;18.82;100.00
4586;BME280;2305;50.118;8.952;2023-08-01T03:54:08;98951.53;;;18.77;100.00
4586;BME280;2305;50.118;8.952;2023-08-01T03:56:41;98934.28;;;18.80;100.00
4586;BME280;2305;50.118;8.952;2023-08-01T03:59:15;98943.94;;;18.81;100.00
4586;BME280;2305;50.118;8.952;2023-08-01T04:01:47;98924.69;;;18.73;100.00
4586;BME280;2305;50.118;8.952;2023-08-01T04:04:17;98922.44;;;18.70;100.00
4586;BME280;2305;50.118;8.952;2023-08-01T04:06:47;98915.66;;;18.74;100.00
4586;BME280;2305;50.118;8.952;2023-08-01T04:09:15;98929.41;;;18.77;100.00
4586;BME280;2305;50.118;8.952;2023-08-01T04:11:43;98923.44;;;18.75;100.00
4586;BME280;2305;50.118;8.952;2023-08-01T04:14:12;98898.06;;;18.60;100.00
4586;BME280;2305;50.118;8.952;2023-08-01T04:16:41;98893.13;;;18.63;100.00
4586;BME280;2305;50.118;8.952;2023-08-01T04:19:14;98896.34;;;18.72;100.00
4586;BME280;2305;50.118;8.952;2023-08-01T04:21:45;98901.69;;;18.72;100.00
4586;BME280;2305;50.118;8.952;2023-08-01T04:24:16;98898.84;;;18.67;100.00
4586;BME280;2305;50.118;8.952;2023-08-01T04:26:44;98893.72;;;18.65;100.00
4586;BME280;2305;50.118;8.952;2023-08-01T04:29:14;98904.38;;;18.65;100.00
4586;BME280;2305;50.118;8.952;2023-08-01T04:31:44;98902.13;;;18.69;100.00
4586;BME280;2305;50.118;8.952;2023-08-01T04:34:21;98910.91;;;18.76;100.00
4586;BME280;2305;50.118;8.952;2023-08-01T04:36:50;98902.91;;;18.76;100.00
4586;BME280;2305;50.118;8.952;2023-08-01T04:39:24;98917.28;;;18.68;100.00
4586;BME280;2305;50.118;8.952;2023-08-01T04:41:52;98915.41;;;18.75;100.00
4586;BME280;2305;50.118;8.952;2023-08-01T04:44:21;98935.97;;;18.75;100.00
4586;BME280;2305;50.118;8.952;2023-08-01T04:46:51;98929.81;;;18.74;100.00
4586;BME280;2305;50.118;8.952;2023-08-01T04:49:22;98921.22;;;18.66;100.00
4586;BME280;2305;50.118;8.952;2023-08-01T04:51:51;98915.63;;;18.80;100.00
4586;BME280;2305;50.118;8.952;2023-08-01T04:54:20;98918.50;;;18.78;100.00
4586;BME280;2305;50.118;8.952;2023-08-01T04:56:50;98922.81;;;18.80;100.00
4586;BME280;2305;50.118;8.952;2023-08-01T04:59:19;98922.03;;;18.66;100.00
4586;BME280;2305;50.118;8.952;2023-08-01T05:01:49;98941.91;;;18.77;100.00
4586;BME280;2305;50.118;8.952;2023-08-01T05:04:19;98944.59;;;18.70;100.00
4586;BME280;2305;50.118;8.952;2023-08-01T05:06:50;98937.25;;;18.59;100.00
4586;BME280;2305;50.118;8.952;2023-08-01T05:09:20;98924.06;;;18.71;100.00
4586;BME280;2305;50.118;8.952;2023-08-01T05:11:48;98913.44;;;18.58;100.00
4586;BME280;2305;50.118;8.952;2023-08-01T05:14:17;98922.06;;;18.60;100.00
4586;BME280;2305;50.118;8.952;2023-08-01T05:16:46;98900.69;;;18.66;100.00
4586;BME280;2305;50.118;8.952;2023-08-01T05:19:14;98885.50;;;18.60;100.00
4586;BME280;2305;50.118;8.952;2023-08-01T05:21:43;98899.44;;;18.69;100.00
4586;BME280;2305;50.118;8.952;2023-08-01T05:24:17;98861.50;;;18.60;100.00
4586;BME280;2305;50.118;8.952;2023-08-01T05:26:45;98865.41;;;18.64;100.00
4586;BME280;2305;50.118;8.952;2023-08-01T05:29:15;98864.75;;;18.69;100.00
4586;BME280;2305;50.118;8.952;2023-08-01T05:31:43;98878.88;;;18.76;100.00
4586;BME280;2305;50.118;8.952;2023-08-01T05:34:12;98876.03;;;18.71;100.00
4586;BME280;2305;50.118;8.952;2023-08-01T05:36:46;98877.06;;;18.76;100.00
4586;BME280;2305;50.118;8.952;2023-08-01T05:39:19;98889.75;;;18.81;100.00
4586;BME280;2305;50.118;8.952;2023-08-01T05:41:50;98892.19;;;18.82;100.00
4586;BME280;2305;50.118;8.952;2023-08-01T05:44:21;98868.66;;;18.73;100.00
4586;BME280;2305;50.118;8.952;2023-08-01T05:46:53;98852.25;;;18.69;100.00
4586;BME280;2305;50.118;8.952;2023-08-01T05:49:22;98854.09;;;18.69;100.00
4586;BME280;2305;50.118;8.952;2023-08-01T05:51:54;98840.94;;;18.67;100.00
4586;BME280;2305;50.118;8.952;2023-08-01T05:54:26;98883.63;;;18.74;100.00
4586;BME280;2305;50.118;8.952;2023-08-01T05:56:55;98884.88;;;18.65;100.00
4586;BME280;2305;50.118;8.952;2023-08-01T05:59:23;98869.88;;;18.70;100.00
4586;BME280;2305;50.118;8.952;2023-08-01T06:01:56;98863.31;;;18.66;100.00
4586;BME280;2305;50.118;8.952;2023-08-01T06:04:24;98852.25;;;18.63;100.00
4586;BME280;2305;50.118;8.952;2023-08-01T06:06:52;98844.09;;;18.51;100.00
4586;BME280;2305;50.118;8.952;2023-08-01T06:09:23;98861.34;;;18.49;100.00
4586;BME280;2305;50.118;8.952;2023-08-01T06:11:56;98854.78;;;18.51;100.00
4586;BME280;2305;50.118;8.952;2023-08-01T06:14:24;98886.81;;;18.45;100.00
4586;BME280;2305;50.118;8.952;2023-08-01T06:16:52;98895.66;;;18.39;100.00
4586;BME280;2305;50.118;8.952;2023-08-01T06:19:21;98872.03;;;18.42;100.00
4586;BME280;2305;50.118;8.952;2023-08-01T06:21:49;98899.97;;;18.33;100.00
4586;BME280;2305;50.118;8.952;2023-08-01T06:24:17;98901.38;;;18.36;100.00
4586;BME280;2305;50.118;8.952;2023-08-01T06:26:47;98892.94;;;18.45;100.00
4586;BME280;2305;50.118;8.952;2023-08-01T06:29:19;98897.25;;;18.53;100.00
4586;BME280;2305;50.118;8.952;2023-08-01T06:31:48;98920.03;;;18.49;100.00
4586;BME280;2305;50.118;8.952;2023-08-01T06:34:19;98919.22;;;18.48;100.00
4586;BME280;2305;50.118;8.952;2023-08-01T06:36:49;98896.25;;;18.47;100.00
4586;BME280;2305;50.118;8.952;2023-08-01T06:39:19;98909.13;;;18.63;100.00
4586;BME280;2305;50.118;8.952;2023-08-01T06:41:48;98919.16;;;18.61;100.00
4586;BME280;2305;50.118;8.952;2023-08-01T06:44:21;98927.41;;;18.53;100.00
4586;BME280;2305;50.118;8.952;2023-08-01T06:46:50;98937.06;;;18.54;100.00
4586;BME280;2305;50.118;8.952;2023-08-01T06:49:19;98962.50;;;18.50;100.00
4586;BME280;2305;50.118;8.952;2023-08-01T06:51:50;98973.38;;;18.49;100.00
4586;BME280;2305;50.118;8.952;2023-08-01T06:54:24;98971.94;;;18.46;100.00
4586;BME280;2305;50.118;8.952;2023-08-01T06:56:53;98980.81;;;18.40;100.00
4586;BME280;2305;50.118;8.952;2023-08-01T06:59:28;99005.81;;;18.39;100.00
4586;BME280;2305;50.118;8.952;2023-08-01T07:02:03;99010.09;;;18.27;100.00
4586;BME280;2305;50.118;8.952;2023-08-01T07:04:35;98998.41;;;18.22;100.00
4586;BME280;2305;50.118;8.952;2023-08-01T07:07:04;99009.47;;;18.25;100.00
4586;BME280;2305;50.118;8.952;2023-08-01T07:09:35;99006.63;;;18.20;100.00
4586;BME280;2305;50.118;8.952;2023-08-01T07:12:06;99015.06;;;18.30;100.00
4586;BME280;2305;50.118;8.952;2023-08-01T07:14:36;99014.44;;;18.35;100.00
4586;BME280;2305;50.118;8.952;2023-08-01T07:17:05;99011.75;;;18.35;100.00
4586;BME280;2305;50.118;8.952;2023-08-01T07:19:34;99008.88;;;18.30;100.00
4586;BME280;2305;50.118;8.952;2023-08-01T07:22:03;99009.09;;;18.41;100.00
4586;BME280;2305;50.118;8.952;2023-08-01T07:24:32;99002.75;;;18.42;100.00
4586;BME280;2305;50.118;8.952;2023-08-01T07:27:03;99009.94;;;18.48;100.00
4586;BME280;2305;50.118;8.952;2023-08-01T07:29:33;99007.84;;;18.57;100.00
4586;BME280;2305;50.118;8.952;2023-08-01T07:32:05;99010.91;;;18.67;100.00
4586;BME280;2305;50.118;8.952;2023-08-01T07:34:34;99009.84;;;18.81;100.00
4586;BME280;2305;50.118;8.952;2023-08-01T07:37:04;99010.22;;;18.97;100.00
4586;BME280;2305;50.118;8.952;2023-08-01T07:39:32;98998.25;;;19.12;100.00
4586;BME280;2305;50.118;8.952;2023-08-01T07:42:04;99006.25;;;19.25;100.00
4586;BME280;2305;50.118;8.952;2023-08-01T07:44:34;99006.25;;;19.25;100.00
4586;BME280;2305;50.118;8.952;2023-08-01T07:47:04;99013.66;;;19.23;100.00
4586;BME280;2305;50.118;8.952;2023-08-01T07:49:35;98998.81;;;19.27;100.00
4586;BME280;2305;50.118;8.952;2023-08-01T07:52:06;98999.63;;;19.34;100.00
4586;BME280;2305;50.118;8.952;2023-08-01T07:54:38;98996.53;;;19.37;100.00
4586;BME280;2305;50.118;8.952;2023-08-01T07:57:08;99003.06;;;19.41;100.00
4586;BME280;2305;50.118;8.952;2023-08-01T07:59:42;99008.66;;;19.40;100.00
4586;BME280;2305;50.118;8.952;2023-08-01T08:02:13;99022.03;;;19.33;100.00
4586;BME280;2305;50.118;8.952;2023-08-01T08:04:41;99027.41;;;19.27;100.00
4586;BME280;2305;50.118;8.952;2023-08-01T08:07:13;99033.78;;;19.26;100.00
4586;BME280;2305;50.118;8.952;2023-08-01T08:09:43;99035.19;;;19.28;100.00
4586;BME280;2305;50.118;8.952;2023-08-01T08:12:15;99033.94;;;19.31;100.00
4586;BME280;2305;50.118;8.952;2023-08-01T08:14:46;99033.97;;;19.24;100.00
4586;BME280;2305;50.118;8.952;2023-08-01T08:17:19;99037.06;;;19.28;100.00
4586;BME280;2305;50.118;8.952;2023-08-01T08:19:51;99046.31;;;19.12;100.00
4586;BME280;2305;50.118;8.952;2023-08-01T08:22:20;99039.75;;;19.08;100.00
4586;BME280;2305;50.118;8.952;2023-08-01T08:24:52;99049.66;;;19.01;100.00
4586;BME280;2305;50.118;8.952;2023-08-01T08:27:20;99045.34;;;19.00;100.00
4586;BME280;2305;50.118;8.952;2023-08-01T08:29:49;99048.19;;;19.05;100.00
4586;BME280;2305;50.118;8.952;2023-08-01T08:32:23;99060.50;;;19.13;100.00
4586;BME280;2305;50.118;8.952;2023-08-01T08:34:51;99059.47;;;19.20;100.00
4586;BME280;2305;50.118;8.952;2023-08-01T08:37:19;99063.97;;;19.33;100.00
4586;BME280;2305;50.118;8.952;2023-08-01T08:39:48;99059.16;;;19.48;100.00
4586;BME280;2305;50.118;8.952;2023-08-01T08:42:18;99055.16;;;19.63;100.00
4586;BME280;2305;50.118;8.952;2023-08-01T08:44:50;99053.19;;;19.90;100.00
4586;BME280;2305;50.118;8.952;2023-08-01T08:47:25;99054.81;;;20.28;100.00
4586;BME280;2305;50.118;8.952;2023-08-01T08:49:55;99056.66;;;20.52;100.00
4586;BME280;2305;50.118;8.952;2023-08-01T08:52:25;99060.19;;;20.71;100.00
4586;BME280;2305;50.118;8.952;2023-08-01T08:54:56;99061.16;;;20.76;100.00
4586;BME280;2305;50.118;8.952;2023-08-01T08:57:27;99064.28;;;20.73;100.00
4586;BME280;2305;50.118;8.952;2023-08-01T08:59:58;99064.28;;;20.73;100.00
4586;BME280;2305;50.118;8.952;2023-08-01T09:02:33;99064.72;;;20.70;100.00
4586;BME280;2305;50.118;8.952;2023-08-01T09:05:04;99059.44;;;20.88;100.00
4586;BME280;2305;50.118;8.952;2023-08-01T09:07:39;99060.66;;;21.10;100.00
4586;BME280;2305;50.118;8.952;2023-08-01T09:10:09;99064.13;;;21.29;100.00
4586;BME280;2305;50.118;8.952;2023-08-01T09:12:40;99065.03;;;21.41;100.00
4586;BME280;2305;50.118;8.952;2023-08-01T09:15:10;99059.38;;;21.49;100.00
4586;BME280;2305;50.118;8.952;2023-08-01T09:17:49;99061.84;;;21.50;100.00
4586;BME280;2305;50.118;8.952;2023-08-01T09:20:19;99056.84;;;21.54;100.00
4586;BME280;2305;50.118;8.952;2023-08-01T09:22:49;99064.56;;;21.44;100.00
4586;BME280;2305;50.118;8.952;2023-08-01T09:25:18;99055.00;;;21.36;100.00
4586;BME280;2305;50.118;8.952;2023-08-01T09:27:48;99063.47;;;21.33;100.00
4586;BME280;2305;50.118;8.952;2023-08-01T09:30:18;99063.47;;;21.33;100.00
4586;BME280;2305;50.118;8.952;2023-08-01T09:32:54;99064.81;;;21.24;100.00
4586;BME280;2305;50.118;8.952;2023-08-01T09:35:23;99059.00;;;21.27;100.00
4586;BME280;2305;50.118;8.952;2023-08-01T09:37:51;99059.91;;;21.21;100.00
4586;BME280;2305;50.118;8.952;2023-08-01T09:40:20;99056.13;;;21.11;100.00
4586;BME280;2305;50.118;8.952;2023-08-01T09:42:48;99053.06;;;21.07;100.00
4586;BME280;2305;50.118;8.952;2023-08-01T09:45:19;99059.22;;;21.08;100.00
4586;BME280;2305;50.118;8.952;2023-08-01T09:47:48;99056.03;;;21.17;100.00
4586;BME280;2305;50.118;8.952;2023-08-01T09:50:24;99052.88;;;21.20;100.00
4586;BME280;2305;50.118;8.952;2023-08-01T09:52:53;99059.66;;;21.23;100.00
4586;BME280;2305;50.118;8.952;2023-08-01T09:55:26;99062.94;;;21.43;100.00
4586;BME280;2305;50.118;8.952;2023-08-01T09:57:57;99047.81;;;21.48;100.00
4586;BME280;2305;50.118;8.952;2023-08-01T10:00:27;99043.97;;;21.44;100.00
4586;BME280;2305;50.118;8.952;2023-08-01T10:02:59;99042.81;;;21.52;100.00
4586;BME280;2305;50.118;8.952;2023-08-01T10:05:31;99041.84;;;21.64;100.00
4586;BME280;2305;50.118;8.952;2023-08-01T10:08:03;99050.28;;;21.68;100.00
4586;BME280;2305;50.118;8.952;2023-08-01T10:10:32;99053.25;;;21.78;100.00
4586;BME280;2305;50.118;8.952;2023-08-01T10:13:03;99048.41;;;21.98;100.00
4586;BME280;2305;50.118;8.952;2023-08-01T10:15:37;99048.13;;;22.29;100.00
4586;BME280;2305;50.118;8.952;2023-08-01T10:18:06;99050.06;;;22.51;100.00
4586;BME280;2305;50.118;8.952;2023-08-01T10:20:38;99041.66;;;22.71;100.00
4586;BME280;2305;50.118;8.952;2023-08-01T10:23:08;99046.91;;;22.66;100.00
4586;BME280;2305;50.118;8.952;2023-08-01T10:25:39;99044.72;;;22.51;100.00
4586;BME280;2305;50.118;8.952;2023-08-01T10:28:09;99047.09;;;22.41;100.00
4586;BME280;2305;50.118;8.952;2023-08-01T10:30:38;99051.28;;;22.26;100.00
4586;BME280;2305;50.118;8.952;2023-08-01T10:33:07;99053.63;;;22.22;100.00
4586;BME280;2305;50.118;8.952;2023-08-01T10:35:42;99048.63;;;22.37;100.00
4586;BME280;2305;50.118;8.952;2023-08-01T10:38:12;99058.47;;;22.43;100.00
4586;BME280;2305;50.118;8.952;2023-08-01T10:40:43;99059.13;;;22.39;100.00
4586;BME280;2305;50.118;8.952;2023-08-01T10:43:20;99055.63;;;22.38;100.00
4586;BME280;2305;50.118;8.952;2023-08-01T10:46:00;99053.16;;;22.25;100.00
4586;BME280;2305;50.118;8.952;2023-08-01T10:48:30;99068.78;;;22.17;100.00
4586;BME280;2305;50.118;8.952;2023-08-01T10:51:00;99063.13;;;22.07;100.00
4586;BME280;2305;50.118;8.952;2023-08-01T10:53:40;99077.03;;;22.04;100.00
4586;BME280;2305;50.118;8.952;2023-08-01T10:56:19;99081.03;;;21.95;100.00
4586;BME280;2305;50.118;8.952;2023-08-01T10:58:49;99077.28;;;21.84;100.00
4586;BME280;2305;50.118;8.952;2023-08-01T11:01:19;99073.22;;;21.82;100.00
4586;BME280;2305;50.118;8.952;2023-08-01T11:03:48;99079.47;;;21.76;100.00
4586;BME280;2305;50.118;8.952;2023-08-01T11:06:21;99083.28;;;21.98;100.00
4586;BME280;2305;50.118;8.952;2023-08-01T11:08:52;99077.94;;;22.39;100.00
4586;BME280;2305;50.118;8.952;2023-08-01T11:11:24;99076.72;;;22.76;100.00
4586;BME280;2305;50.118;8.952;2023-08-01T11:13:52;99078.34;;;23.11;100.00
4586;BME280;2305;50.118;8.952;2023-08-01T11:16:27;99064.75;;;23.41;100.00
4586;BME280;2305;50.118;8.952;2023-08-01T11:18:56;99076.44;;;23.46;100.00
4586;BME280;2305;50.118;8.952;2023-08-01T11:21:31;99076.44;;;23.46;100.00
4586;BME280;2305;50.118;8.952;2023-08-01T11:24:06;99093.50;;;23.40;100.00
4586;BME280;2305;50.118;8.952;2023-08-01T11:26:35;99089.00;;;23.29;100.00
4586;BME280;2305;50.118;8.952;2023-08-01T11:29:03;99089.69;;;23.25;100.00
4586;BME280;2305;50.118;8.952;2023-08-01T11:31:33;99098.19;;;23.10;100.00
4586;BME280;2305;50.118;8.952;2023-08-01T11:34:07;99098.09;;;22.94;100.00
4586;BME280;2305;50.118;8.952;2023-08-01T11:36:42;99093.91;;;22.75;100.00
4586;BME280;2305;50.118;8.952;2023-08-01T11:39:17;99100.91;;;22.76;100.00
4586;BME280;2305;50.118;8.952;2023-08-01T11:41:49;99101.03;;;22.81;100.00
4586;BME280;2305;50.118;8.952;2023-08-01T11:44:18;99099.97;;;22.82;100.00
4586;BME280;2305;50.118;8.952;2023-08-01T11:46:53;99100.53;;;22.84;100.00
4586;BME280;2305;50.118;8.952;2023-08-01T11:49:25;99101.38;;;22.84;100.00
4586;BME280;2305;50.118;8.952;2023-08-01T11:51:56;99102.66;;;22.93;100.00
4586;BME280;2305;50.118;8.952;2023-08-01T11:54:25;99100.91;;;22.99;100.00
4586;BME280;2305;50.118;8.952;2023-08-01T11:57:01;99112.69;;;22.98;100.00
4586;BME280;2305;50.118;8.952;2023-08-01T11:59:31;99113.28;;;23.00;100.00
4586;BME280;2305;50.118;8.952;2023-08-01T12:02:00;99106.50;;;23.09;100.00
4586;BME280;2305;50.118;8.952;2023-08-01T12:04:30;99115.38;;;23.32;100.00
4586;BME280;2305;50.118;8.952;2023-08-01T12:07:01;99105.16;;;23.69;100.00
4586;BME280;2305;50.118;8.952;2023-08-01T12:09:39;99121.06;;;24.10;100.00
4586;BME280;2305;50.118;8.952;2023-08-01T12:12:09;99112.78;;;24.27;100.00
4586;BME280;2305;50.118;8.952;2023-08-01T12:14:40;99119.66;;;24.35;100.00
4586;BME280;2305;50.118;8.952;2023-08-01T12:17:09;99103.34;;;24.41;100.00
4586;BME280;2305;50.118;8.952;2023-08-01T12:19:39;99108.22;;;24.56;100.00
4586;BME280;2305;50.118;8.952;2023-08-01T12:22:11;99108.88;;;24.79;100.00
4586;BME280;2305;50.118;8.952;2023-08-01T12:24:41;99112.69;;;25.00;100.00
4586;BME280;2305;50.118;8.952;2023-08-01T12:27:16;99106.69;;;25.31;100.00
4586;BME280;2305;50.118;8.952;2023-08-01T12:29:45;99110.69;;;25.28;100.00
4586;BME280;2305;50.118;8.952;2023-08-01T12:32:16;99128.69;;;25.23;100.00
4586;BME280;2305;50.118;8.952;2023-08-01T12:34:46;99116.34;;;25.10;100.00
4586;BME280;2305;50.118;8.952;2023-08-01T12:37:18;99144.53;;;25.03;100.00
4586;BME280;2305;50.118;8.952;2023-08-01T12:39:50;99124.59;;;25.04;100.00
4586;BME280;2305;50.118;8.952;2023-08-01T12:42:20;99123.69;;;25.31;100.00
4586;BME280;2305;50.118;8.952;2023-08-01T12:44:48;99117.91;;;25.23;100.00
4586;BME280;2305;50.118;8.952;2023-08-01T12:47:19;99115.06;;;24.96;100.00
4586;BME280;2305;50.118;8.952;2023-08-01T12:49:49;99127.22;;;24.66;100.00
4586;BME280;2305;50.118;8.952;2023-08-01T12:52:23;99135.19;;;24.44;100.00
4586;BME280;2305;50.118;8.952;2023-08-01T12:54:52;99121.59;;;24.23;100.00
4586;BME280;2305;50.118;8.952;2023-08-01T12:57:20;99122.81;;;24.04;100.00
4586;BME280;2305;50.118;8.952;2023-08-01T12:59:52;99123.16;;;24.08;100.00
4586;BME280;2305;50.118;8.952;2023-08-01T13:02:21;99120.97;;;24.05;100.00
4586;BME280;2305;50.118;8.952;2023-08-01T13:04:53;99139.38;;;24.24;100.00
4586;BME280;2305;50.118;8.952;2023-08-01T13:07:22;99144.56;;;24.14;100.00
4586;BME280;2305;50.118;8.952;2023-08-01T13:09:51;99158.88;;;24.03;100.00
4586;BME280;2305;50.118;8.952;2023-08-01T13:12:19;99162.09;;;23.89;100.00
4586;BME280;2305;50.118;8.952;2023-08-01T13:14:48;99170.19;;;23.77;100.00
4586;BME280;2305;50.118;8.952;2023-08-01T13:17:19;99175.91;;;23.58;100.00
4586;BME280;2305;50.118;8.952;2023-08-01T13:19:52;99172.47;;;23.34;100.00
4586;BME280;2305;50.118;8.952;2023-08-01T13:22:23;99159.69;;;23.18;100.00
4586;BME280;2305;50.118;8.952;2023-08-01T13:24:51;99171.13;;;23.14;100.00
4586;BME280;2305;50.118;8.952;2023-08-01T13:27:20;99167.94;;;23.05;100.00